sensor_id;sensor_type;location;lat;lon;timestamp;P1;durP1;ratioP1;P2;durP2;ratioP2
39218;SDS011;24934;52.752;6.964;2022-12-11T00:01:13;124.27;;;41.00;;
39218;SDS011;24934;52.752;6.964;2022-12-11T00:03:40;116.83;;;39.13;;
39218;SDS011;24934;52.752;6.964;2022-12-11T00:06:12;122.63;;;43.47;;
39218;SDS011;24934;52.752;6.964;2022-12-11T00:08:39;118.27;;;40.10;;
39218;SDS011;24934;52.752;6.964;2022-12-11T00:11:08;120.90;;;40.27;;
39218;SDS011;24934;52.752;6.964;2022-12-11T00:13:36;117.90;;;41.73;;
39218;SDS011;24934;52.752;6.964;2022-12-11T00:16:01;119.90;;;40.30;;
39218;SDS011;24934;52.752;6.964;2022-12-11T00:18:30;127.37;;;41.53;;
39218;SDS011;24934;52.752;6.964;2022-12-11T00:20:59;111.97;;;41.03;;
39218;SDS011;24934;52.752;6.964;2022-12-11T00:23:29;120.27;;;40.53;;
39218;SDS011;24934;52.752;6.964;2022-12-11T00:25:55;120.80;;;40.03;;
39218;SDS011;24934;52.752;6.964;2022-12-11T00:28:20;105.50;;;39.37;;
39218;SDS011;24934;52.752;6.964;2022-12-11T00:30:46;125.23;;;41.03;;
39218;SDS011;24934;52.752;6.964;2022-12-11T00:33:17;112.50;;;40.13;;
39218;SDS011;24934;52.752;6.964;2022-12-11T00:35:44;113.67;;;40.87;;
39218;SDS011;24934;52.752;6.964;2022-12-11T00:38:14;111.20;;;39.40;;
39218;SDS011;24934;52.752;6.964;2022-12-11T00:40:44;115.33;;;37.93;;
39218;SDS011;24934;52.752;6.964;2022-12-11T00:43:10;101.73;;;36.53;;
39218;SDS011;24934;52.752;6.964;2022-12-11T00:45:37;105.40;;;36.23;;
39218;SDS011;24934;52.752;6.964;2022-12-11T00:48:07;90.67;;;34.10;;
39218;SDS011;24934;52.752;6.964;2022-12-11T00:50:39;99.63;;;35.97;;
39218;SDS011;24934;52.752;6.964;2022-12-11T00:53:07;92.80;;;33.27;;
39218;SDS011;24934;52.752;6.964;2022-12-11T00:55:36;103.80;;;34.30;;
39218;SDS011;24934;52.752;6.964;2022-12-11T00:58:03;88.47;;;33.47;;
39218;SDS011;24934;52.752;6.964;2022-12-11T01:00:32;87.47;;;33.27;;
39218;SDS011;24934;52.752;6.964;2022-12-11T01:03:01;100.97;;;33.03;;
39218;SDS011;24934;52.752;6.964;2022-12-11T01:05:32;97.63;;;33.80;;
39218;SDS011;24934;52.752;6.964;2022-12-11T01:07:58;95.37;;;33.47;;
39218;SDS011;24934;52.752;6.964;2022-12-11T01:10:24;96.50;;;33.00;;
39218;SDS011;24934;52.752;6.964;2022-12-11T01:12:51;92.53;;;34.50;;
39218;SDS011;24934;52.752;6.964;2022-12-11T01:15:25;106.40;;;35.13;;
39218;SDS011;24934;52.752;6.964;2022-12-11T01:17:53;97.87;;;33.70;;
39218;SDS011;24934;52.752;6.964;2022-12-11T01:20:19;95.23;;;32.37;;
39218;SDS011;24934;52.752;6.964;2022-12-11T01:22:46;95.47;;;34.03;;
39218;SDS011;24934;52.752;6.964;2022-12-11T01:25:12;98.53;;;34.60;;
39218;SDS011;24934;52.752;6.964;2022-12-11T01:27:38;93.90;;;32.73;;
39218;SDS011;24934;52.752;6.964;2022-12-11T01:30:04;88.87;;;33.30;;
39218;SDS011;24934;52.752;6.964;2022-12-11T01:32:34;81.70;;;32.17;;
39218;SDS011;24934;52.752;6.964;2022-12-11T01:35:01;89.77;;;31.23;;
39218;SDS011;24934;52.752;6.964;2022-12-11T01:37:30;88.40;;;32.63;;
39218;SDS011;24934;52.752;6.964;2022-12-11T01:39:56;94.37;;;33.00;;
39218;SDS011;24934;52.752;6.964;2022-12-11T01:42:22;94.47;;;31.83;;
39218;SDS011;24934;52.752;6.964;2022-12-11T01:47:40;92.70;;;32.20;;
39218;SDS011;24934;52.752;6.964;2022-12-11T01:50:07;91.93;;;33.10;;
39218;SDS011;24934;52.752;6.964;2022-12-11T01:52:33;91.20;;;32.50;;
39218;SDS011;24934;52.752;6.964;2022-12-11T01:54:58;94.87;;;34.97;;
39218;SDS011;24934;52.752;6.964;2022-12-11T01:57:25;97.53;;;34.73;;
39218;SDS011;24934;52.752;6.964;2022-12-11T01:59:50;103.30;;;35.80;;
39218;SDS011;24934;52.752;6.964;2022-12-11T02:02:20;108.00;;;34.93;;
39218;SDS011;24934;52.752;6.964;2022-12-11T02:04:51;103.67;;;35.60;;
39218;SDS011;24934;52.752;6.964;2022-12-11T02:07:17;102.97;;;36.00;;
39218;SDS011;24934;52.752;6.964;2022-12-11T02:09:44;114.33;;;37.37;;
39218;SDS011;24934;52.752;6.964;2022-12-11T02:15:03;113.33;;;35.57;;
39218;SDS011;24934;52.752;6.964;2022-12-11T02:17:46;109.47;;;35.93;;
39218;SDS011;24934;52.752;6.964;2022-12-11T02:25:32;103.93;;;35.20;;
39218;SDS011;24934;52.752;6.964;2022-12-11T02:31:39;83.13;;;31.80;;
39218;SDS011;24934;52.752;6.964;2022-12-11T02:33:57;92.93;;;32.57;;
39218;SDS011;24934;52.752;6.964;2022-12-11T02:36:39;90.87;;;32.93;;
39218;SDS011;24934;52.752;6.964;2022-12-11T02:39:11;89.53;;;32.27;;
39218;SDS011;24934;52.752;6.964;2022-12-11T02:41:43;94.73;;;33.37;;
39218;SDS011;24934;52.752;6.964;2022-12-11T02:44:15;95.80;;;31.73;;
39218;SDS011;24934;52.752;6.964;2022-12-11T02:46:44;95.20;;;32.77;;
39218;SDS011;24934;52.752;6.964;2022-12-11T02:49:10;105.57;;;34.77;;
39218;SDS011;24934;52.752;6.964;2022-12-11T02:51:38;94.67;;;33.87;;
39218;SDS011;24934;52.752;6.964;2022-12-11T02:54:27;95.53;;;34.33;;
39218;SDS011;24934;52.752;6.964;2022-12-11T02:56:58;90.77;;;33.70;;
39218;SDS011;24934;52.752;6.964;2022-12-11T02:59:38;98.73;;;35.33;;
39218;SDS011;24934;52.752;6.964;2022-12-11T03:02:07;106.70;;;35.60;;
39218;SDS011;24934;52.752;6.964;2022-12-11T03:04:35;93.67;;;35.30;;
39218;SDS011;24934;52.752;6.964;2022-12-11T03:07:06;93.73;;;33.20;;
39218;SDS011;24934;52.752;6.964;2022-12-11T03:09:38;89.27;;;33.60;;
39218;SDS011;24934;52.752;6.964;2022-12-11T03:12:09;93.77;;;34.20;;
39218;SDS011;24934;52.752;6.964;2022-12-11T03:14:38;96.60;;;34.37;;
39218;SDS011;24934;52.752;6.964;2022-12-11T03:19:44;92.90;;;34.00;;
39218;SDS011;24934;52.752;6.964;2022-12-11T03:25:29;88.30;;;33.87;;
39218;SDS011;24934;52.752;6.964;2022-12-11T03:28:18;92.13;;;34.77;;
39218;SDS011;24934;52.752;6.964;2022-12-11T03:30:55;90.37;;;33.30;;
39218;SDS011;24934;52.752;6.964;2022-12-11T03:33:23;88.43;;;34.17;;
39218;SDS011;24934;52.752;6.964;2022-12-11T03:36:05;82.13;;;34.20;;
39218;SDS011;24934;52.752;6.964;2022-12-11T03:38:39;86.67;;;34.23;;
39218;SDS011;24934;52.752;6.964;2022-12-11T03:41:25;84.43;;;32.33;;
39218;SDS011;24934;52.752;6.964;2022-12-11T03:43:52;86.63;;;33.97;;
39218;SDS011;24934;52.752;6.964;2022-12-11T03:46:22;92.33;;;34.27;;
39218;SDS011;24934;52.752;6.964;2022-12-11T03:49:00;93.13;;;34.23;;
39218;SDS011;24934;52.752;6.964;2022-12-11T03:51:30;89.50;;;34.80;;
39218;SDS011;24934;52.752;6.964;2022-12-11T03:53:58;88.87;;;33.40;;
39218;SDS011;24934;52.752;6.964;2022-12-11T03:56:24;97.80;;;34.03;;
39218;SDS011;24934;52.752;6.964;2022-12-11T03:58:52;98.43;;;34.47;;
39218;SDS011;24934;52.752;6.964;2022-12-11T04:01:20;89.53;;;33.87;;
39218;SDS011;24934;52.752;6.964;2022-12-11T04:03:46;100.40;;;34.60;;
39218;SDS011;24934;52.752;6.964;2022-12-11T04:06:15;90.93;;;33.77;;
39218;SDS011;24934;52.752;6.964;2022-12-11T04:08:40;104.93;;;34.87;;
39218;SDS011;24934;52.752;6.964;2022-12-11T04:11:06;104.10;;;34.40;;
39218;SDS011;24934;52.752;6.964;2022-12-11T04:13:50;106.53;;;34.07;;
39218;SDS011;24934;52.752;6.964;2022-12-11T04:16:36;96.30;;;34.77;;
39218;SDS011;24934;52.752;6.964;2022-12-11T04:19:02;92.57;;;32.63;;
39218;SDS011;24934;52.752;6.964;2022-12-11T04:21:46;98.17;;;34.00;;
39218;SDS011;24934;52.752;6.964;2022-12-11T04:24:33;99.57;;;33.67;;
39218;SDS011;24934;52.752;6.964;2022-12-11T04:27:00;105.47;;;35.20;;
39218;SDS011;24934;52.752;6.964;2022-12-11T04:29:28;99.40;;;33.93;;
39218;SDS011;24934;52.752;6.964;2022-12-11T04:31:53;110.50;;;36.50;;
39218;SDS011;24934;52.752;6.964;2022-12-11T04:34:20;121.47;;;36.50;;
39218;SDS011;24934;52.752;6.964;2022-12-11T04:36:48;107.37;;;36.67;;
39218;SDS011;24934;52.752;6.964;2022-12-11T04:39:17;109.37;;;36.10;;
39218;SDS011;24934;52.752;6.964;2022-12-11T04:41:43;115.90;;;36.17;;
39218;SDS011;24934;52.752;6.964;2022-12-11T04:44:09;113.43;;;36.40;;
39218;SDS011;24934;52.752;6.964;2022-12-11T04:46:36;126.37;;;36.50;;
39218;SDS011;24934;52.752;6.964;2022-12-11T04:49:02;114.43;;;36.23;;
39218;SDS011;24934;52.752;6.964;2022-12-11T04:51:27;118.43;;;37.23;;
39218;SDS011;24934;52.752;6.964;2022-12-11T04:53:54;122.87;;;37.43;;
39218;SDS011;24934;52.752;6.964;2022-12-11T04:56:20;129.23;;;38.83;;
39218;SDS011;24934;52.752;6.964;2022-12-11T04:58:46;110.03;;;36.47;;
39218;SDS011;24934;52.752;6.964;2022-12-11T05:01:14;115.23;;;38.37;;
39218;SDS011;24934;52.752;6.964;2022-12-11T05:03:44;132.37;;;37.67;;
39218;SDS011;24934;52.752;6.964;2022-12-11T05:06:10;125.33;;;38.33;;
39218;SDS011;24934;52.752;6.964;2022-12-11T05:08:37;120.83;;;38.90;;
39218;SDS011;24934;52.752;6.964;2022-12-11T05:11:05;124.30;;;39.80;;
39218;SDS011;24934;52.752;6.964;2022-12-11T05:13:32;119.97;;;37.30;;
39218;SDS011;24934;52.752;6.964;2022-12-11T05:16:08;117.30;;;36.80;;
39218;SDS011;24934;52.752;6.964;2022-12-11T05:18:35;119.97;;;37.90;;
39218;SDS011;24934;52.752;6.964;2022-12-11T05:21:01;124.80;;;39.07;;
39218;SDS011;24934;52.752;6.964;2022-12-11T05:23:39;118.40;;;37.80;;
39218;SDS011;24934;52.752;6.964;2022-12-11T05:26:11;115.17;;;38.80;;
39218;SDS011;24934;52.752;6.964;2022-12-11T05:28:39;121.77;;;38.53;;
39218;SDS011;24934;52.752;6.964;2022-12-11T05:31:06;113.23;;;37.43;;
39218;SDS011;24934;52.752;6.964;2022-12-11T05:33:39;107.87;;;36.83;;
39218;SDS011;24934;52.752;6.964;2022-12-11T05:36:05;120.07;;;37.87;;
39218;SDS011;24934;52.752;6.964;2022-12-11T05:38:32;115.13;;;37.90;;
39218;SDS011;24934;52.752;6.964;2022-12-11T05:40:58;116.20;;;37.90;;
39218;SDS011;24934;52.752;6.964;2022-12-11T05:43:26;123.07;;;39.50;;
39218;SDS011;24934;52.752;6.964;2022-12-11T05:46:04;116.13;;;38.07;;
39218;SDS011;24934;52.752;6.964;2022-12-11T05:48:47;121.67;;;38.93;;
39218;SDS011;24934;52.752;6.964;2022-12-11T05:51:15;121.30;;;39.43;;
39218;SDS011;24934;52.752;6.964;2022-12-11T05:53:41;126.80;;;39.57;;
39218;SDS011;24934;52.752;6.964;2022-12-11T05:56:15;108.93;;;37.23;;
39218;SDS011;24934;52.752;6.964;2022-12-11T05:58:48;110.30;;;35.87;;
39218;SDS011;24934;52.752;6.964;2022-12-11T06:01:16;112.33;;;37.37;;
39218;SDS011;24934;52.752;6.964;2022-12-11T06:03:47;115.67;;;38.10;;
39218;SDS011;24934;52.752;6.964;2022-12-11T06:06:13;115.67;;;38.47;;
39218;SDS011;24934;52.752;6.964;2022-12-11T06:08:39;117.07;;;39.03;;
39218;SDS011;24934;52.752;6.964;2022-12-11T06:11:13;111.50;;;37.60;;
39218;SDS011;24934;52.752;6.964;2022-12-11T06:13:39;113.43;;;37.93;;
39218;SDS011;24934;52.752;6.964;2022-12-11T06:16:05;114.60;;;38.50;;
39218;SDS011;24934;52.752;6.964;2022-12-11T06:18:34;117.20;;;39.37;;
39218;SDS011;24934;52.752;6.964;2022-12-11T06:21:01;121.83;;;38.63;;
39218;SDS011;24934;52.752;6.964;2022-12-11T06:23:29;108.20;;;36.93;;
39218;SDS011;24934;52.752;6.964;2022-12-11T06:25:54;111.90;;;38.37;;
39218;SDS011;24934;52.752;6.964;2022-12-11T06:28:20;115.50;;;37.63;;
39218;SDS011;24934;52.752;6.964;2022-12-11T06:30:46;114.90;;;37.37;;
39218;SDS011;24934;52.752;6.964;2022-12-11T06:33:11;122.60;;;38.33;;
39218;SDS011;24934;52.752;6.964;2022-12-11T06:35:37;119.27;;;39.30;;
39218;SDS011;24934;52.752;6.964;2022-12-11T06:38:03;124.47;;;39.17;;
39218;SDS011;24934;52.752;6.964;2022-12-11T06:40:28;135.10;;;40.80;;
39218;SDS011;24934;52.752;6.964;2022-12-11T06:42:56;120.60;;;39.63;;
39218;SDS011;24934;52.752;6.964;2022-12-11T06:45:22;139.93;;;41.77;;
39218;SDS011;24934;52.752;6.964;2022-12-11T06:47:48;118.73;;;39.33;;
39218;SDS011;24934;52.752;6.964;2022-12-11T06:50:13;117.20;;;40.03;;
39218;SDS011;24934;52.752;6.964;2022-12-11T06:52:39;123.93;;;38.73;;
39218;SDS011;24934;52.752;6.964;2022-12-11T06:55:04;129.60;;;40.20;;
39218;SDS011;24934;52.752;6.964;2022-12-11T06:57:31;126.00;;;39.27;;
39218;SDS011;24934;52.752;6.964;2022-12-11T06:59:58;119.13;;;37.43;;
39218;SDS011;24934;52.752;6.964;2022-12-11T07:02:24;114.33;;;37.67;;
39218;SDS011;24934;52.752;6.964;2022-12-11T07:04:49;109.27;;;38.10;;
39218;SDS011;24934;52.752;6.964;2022-12-11T07:07:15;117.93;;;38.43;;
39218;SDS011;24934;52.752;6.964;2022-12-11T07:09:41;120.03;;;38.73;;
39218;SDS011;24934;52.752;6.964;2022-12-11T07:12:07;125.03;;;39.07;;
39218;SDS011;24934;52.752;6.964;2022-12-11T07:14:33;115.20;;;37.13;;
39218;SDS011;24934;52.752;6.964;2022-12-11T07:17:04;117.03;;;37.07;;
39218;SDS011;24934;52.752;6.964;2022-12-11T07:19:30;115.93;;;37.23;;
39218;SDS011;24934;52.752;6.964;2022-12-11T07:21:55;104.60;;;35.93;;
39218;SDS011;24934;52.752;6.964;2022-12-11T07:24:21;112.87;;;36.90;;
39218;SDS011;24934;52.752;6.964;2022-12-11T07:26:47;105.67;;;36.53;;
39218;SDS011;24934;52.752;6.964;2022-12-11T07:29:15;105.67;;;36.53;;
39218;SDS011;24934;52.752;6.964;2022-12-11T07:31:46;118.87;;;37.07;;
39218;SDS011;24934;52.752;6.964;2022-12-11T07:34:12;108.17;;;36.90;;
39218;SDS011;24934;52.752;6.964;2022-12-11T07:36:39;104.20;;;35.53;;
39218;SDS011;24934;52.752;6.964;2022-12-11T07:39:05;104.50;;;36.33;;
39218;SDS011;24934;52.752;6.964;2022-12-11T07:41:34;109.43;;;37.13;;
39218;SDS011;24934;52.752;6.964;2022-12-11T07:44:00;102.73;;;35.97;;
39218;SDS011;24934;52.752;6.964;2022-12-11T07:46:26;95.60;;;35.93;;
39218;SDS011;24934;52.752;6.964;2022-12-11T07:48:53;106.20;;;35.87;;
39218;SDS011;24934;52.752;6.964;2022-12-11T07:51:23;95.83;;;33.30;;
39218;SDS011;24934;52.752;6.964;2022-12-11T07:53:55;103.23;;;37.20;;
39218;SDS011;24934;52.752;6.964;2022-12-11T07:56:28;101.47;;;34.97;;
39218;SDS011;24934;52.752;6.964;2022-12-11T07:59:03;109.40;;;37.63;;
39218;SDS011;24934;52.752;6.964;2022-12-11T08:01:33;102.03;;;36.80;;
39218;SDS011;24934;52.752;6.964;2022-12-11T08:04:00;94.47;;;37.37;;
39218;SDS011;24934;52.752;6.964;2022-12-11T08:06:31;101.50;;;36.80;;
39218;SDS011;24934;52.752;6.964;2022-12-11T08:08:59;105.03;;;39.30;;
39218;SDS011;24934;52.752;6.964;2022-12-11T08:11:26;98.20;;;40.20;;
39218;SDS011;24934;52.752;6.964;2022-12-11T08:13:52;105.47;;;40.03;;
39218;SDS011;24934;52.752;6.964;2022-12-11T08:16:21;110.40;;;39.40;;
39218;SDS011;24934;52.752;6.964;2022-12-11T08:18:47;102.50;;;39.70;;
39218;SDS011;24934;52.752;6.964;2022-12-11T08:21:14;103.47;;;37.13;;
39218;SDS011;24934;52.752;6.964;2022-12-11T08:23:51;106.73;;;38.00;;
39218;SDS011;24934;52.752;6.964;2022-12-11T08:26:22;92.40;;;36.80;;
39218;SDS011;24934;52.752;6.964;2022-12-11T08:28:50;88.63;;;36.70;;
39218;SDS011;24934;52.752;6.964;2022-12-11T08:31:16;105.17;;;38.37;;
39218;SDS011;24934;52.752;6.964;2022-12-11T08:33:43;141.87;;;38.90;;
39218;SDS011;24934;52.752;6.964;2022-12-11T08:36:10;106.50;;;38.80;;
39218;SDS011;24934;52.752;6.964;2022-12-11T08:38:38;93.60;;;37.77;;
39218;SDS011;24934;52.752;6.964;2022-12-11T08:41:11;95.90;;;38.60;;
39218;SDS011;24934;52.752;6.964;2022-12-11T08:43:46;101.10;;;37.77;;
39218;SDS011;24934;52.752;6.964;2022-12-11T08:46:12;99.87;;;38.70;;
39218;SDS011;24934;52.752;6.964;2022-12-11T08:48:39;95.17;;;38.83;;
39218;SDS011;24934;52.752;6.964;2022-12-11T08:51:09;96.77;;;37.63;;
39218;SDS011;24934;52.752;6.964;2022-12-11T08:53:37;97.83;;;37.53;;
39218;SDS011;24934;52.752;6.964;2022-12-11T08:56:04;94.90;;;38.40;;
39218;SDS011;24934;52.752;6.964;2022-12-11T08:58:34;89.40;;;37.80;;
39218;SDS011;24934;52.752;6.964;2022-12-11T09:01:04;91.37;;;38.17;;
39218;SDS011;24934;52.752;6.964;2022-12-11T09:03:36;90.67;;;37.00;;
39218;SDS011;24934;52.752;6.964;2022-12-11T09:06:06;101.17;;;38.40;;
39218;SDS011;24934;52.752;6.964;2022-12-11T09:08:33;94.30;;;37.40;;
39218;SDS011;24934;52.752;6.964;2022-12-11T09:11:06;93.97;;;38.80;;
39218;SDS011;24934;52.752;6.964;2022-12-11T09:13:38;101.63;;;37.57;;
39218;SDS011;24934;52.752;6.964;2022-12-11T09:16:05;91.40;;;37.37;;
39218;SDS011;24934;52.752;6.964;2022-12-11T09:18:33;99.97;;;38.47;;
39218;SDS011;24934;52.752;6.964;2022-12-11T09:21:06;95.90;;;38.60;;
39218;SDS011;24934;52.752;6.964;2022-12-11T09:23:34;99.40;;;37.70;;
39218;SDS011;24934;52.752;6.964;2022-12-11T09:26:02;95.17;;;38.83;;
39218;SDS011;24934;52.752;6.964;2022-12-11T09:28:35;96.93;;;37.60;;
39218;SDS011;24934;52.752;6.964;2022-12-11T09:31:09;86.10;;;36.70;;
39218;SDS011;24934;52.752;6.964;2022-12-11T09:33:35;96.50;;;37.50;;
39218;SDS011;24934;52.752;6.964;2022-12-11T09:36:01;95.03;;;38.13;;
39218;SDS011;24934;52.752;6.964;2022-12-11T09:38:28;95.23;;;37.07;;
39218;SDS011;24934;52.752;6.964;2022-12-11T09:40:54;102.07;;;38.70;;
39218;SDS011;24934;52.752;6.964;2022-12-11T09:46:09;90.97;;;39.80;;
39218;SDS011;24934;52.752;6.964;2022-12-11T09:48:42;94.63;;;38.83;;
39218;SDS011;24934;52.752;6.964;2022-12-11T09:51:18;124.47;;;41.40;;
39218;SDS011;24934;52.752;6.964;2022-12-11T09:53:49;101.67;;;39.60;;
39218;SDS011;24934;52.752;6.964;2022-12-11T09:56:18;107.40;;;39.70;;
39218;SDS011;24934;52.752;6.964;2022-12-11T09:59:22;96.10;;;39.37;;
39218;SDS011;24934;52.752;6.964;2022-12-11T10:04:33;98.03;;;40.47;;
39218;SDS011;24934;52.752;6.964;2022-12-11T10:17:37;94.50;;;41.93;;
39218;SDS011;24934;52.752;6.964;2022-12-11T10:22:50;88.07;;;39.73;;
39218;SDS011;24934;52.752;6.964;2022-12-11T10:27:59;88.70;;;40.40;;
39218;SDS011;24934;52.752;6.964;2022-12-11T10:30:35;93.07;;;40.53;;
39218;SDS011;24934;52.752;6.964;2022-12-11T10:35:38;95.50;;;40.70;;
39218;SDS011;24934;52.752;6.964;2022-12-11T10:40:51;92.23;;;40.43;;
39218;SDS011;24934;52.752;6.964;2022-12-11T10:43:30;105.97;;;41.53;;
39218;SDS011;24934;52.752;6.964;2022-12-11T10:45:59;88.87;;;40.60;;
39218;SDS011;24934;52.752;6.964;2022-12-11T10:48:24;90.80;;;40.27;;
39218;SDS011;24934;52.752;6.964;2022-12-11T10:50:55;101.87;;;40.80;;
39218;SDS011;24934;52.752;6.964;2022-12-11T10:53:24;94.17;;;39.47;;
39218;SDS011;24934;52.752;6.964;2022-12-11T10:55:50;92.30;;;39.47;;
39218;SDS011;24934;52.752;6.964;2022-12-11T10:58:18;90.30;;;40.13;;
39218;SDS011;24934;52.752;6.964;2022-12-11T11:00:57;85.57;;;39.40;;
39218;SDS011;24934;52.752;6.964;2022-12-11T11:03:26;90.07;;;39.97;;
39218;SDS011;24934;52.752;6.964;2022-12-11T11:06:11;97.67;;;41.73;;
39218;SDS011;24934;52.752;6.964;2022-12-11T11:08:42;87.43;;;38.67;;
39218;SDS011;24934;52.752;6.964;2022-12-11T11:13:47;99.80;;;40.73;;
39218;SDS011;24934;52.752;6.964;2022-12-11T11:16:15;93.60;;;39.00;;
39218;SDS011;24934;52.752;6.964;2022-12-11T11:18:48;99.33;;;39.30;;
39218;SDS011;24934;52.752;6.964;2022-12-11T11:21:20;94.93;;;39.80;;
39218;SDS011;24934;52.752;6.964;2022-12-11T11:23:48;94.17;;;39.60;;
39218;SDS011;24934;52.752;6.964;2022-12-11T11:26:15;90.00;;;38.73;;
39218;SDS011;24934;52.752;6.964;2022-12-11T11:28:46;93.97;;;40.20;;
39218;SDS011;24934;52.752;6.964;2022-12-11T11:31:17;91.93;;;39.97;;
39218;SDS011;24934;52.752;6.964;2022-12-11T11:34:04;90.33;;;40.57;;
39218;SDS011;24934;52.752;6.964;2022-12-11T11:36:32;88.13;;;39.17;;
39218;SDS011;24934;52.752;6.964;2022-12-11T11:41:30;93.00;;;40.30;;
39218;SDS011;24934;52.752;6.964;2022-12-11T11:44:14;82.77;;;39.03;;
39218;SDS011;24934;52.752;6.964;2022-12-11T11:46:48;90.77;;;38.70;;
39218;SDS011;24934;52.752;6.964;2022-12-11T11:49:28;81.43;;;38.47;;
39218;SDS011;24934;52.752;6.964;2022-12-11T11:55:05;85.47;;;37.17;;
39218;SDS011;24934;52.752;6.964;2022-12-11T11:57:39;81.93;;;37.33;;
39218;SDS011;24934;52.752;6.964;2022-12-11T12:00:20;80.63;;;36.03;;
39218;SDS011;24934;52.752;6.964;2022-12-11T12:02:50;79.70;;;36.63;;
39218;SDS011;24934;52.752;6.964;2022-12-11T12:05:28;76.90;;;36.40;;
39218;SDS011;24934;52.752;6.964;2022-12-11T12:08:11;78.57;;;36.50;;
39218;SDS011;24934;52.752;6.964;2022-12-11T12:13:31;77.70;;;36.13;;
39218;SDS011;24934;52.752;6.964;2022-12-11T12:16:18;82.67;;;35.13;;
39218;SDS011;24934;52.752;6.964;2022-12-11T12:21:51;83.07;;;37.20;;
39218;SDS011;24934;52.752;6.964;2022-12-11T12:38:29;82.60;;;35.80;;
39218;SDS011;24934;52.752;6.964;2022-12-11T12:46:52;81.80;;;36.47;;
39218;SDS011;24934;52.752;6.964;2022-12-11T12:49:27;80.20;;;35.47;;
39218;SDS011;24934;52.752;6.964;2022-12-11T12:51:55;84.07;;;37.60;;
39218;SDS011;24934;52.752;6.964;2022-12-11T12:54:21;94.63;;;41.43;;
39218;SDS011;24934;52.752;6.964;2022-12-11T12:56:50;91.63;;;39.13;;
39218;SDS011;24934;52.752;6.964;2022-12-11T12:59:20;86.40;;;38.17;;
39218;SDS011;24934;52.752;6.964;2022-12-11T13:01:52;90.13;;;38.13;;
39218;SDS011;24934;52.752;6.964;2022-12-11T13:07:21;87.17;;;37.47;;
39218;SDS011;24934;52.752;6.964;2022-12-11T13:12:49;95.80;;;39.97;;
39218;SDS011;24934;52.752;6.964;2022-12-11T13:17:52;90.73;;;37.97;;
39218;SDS011;24934;52.752;6.964;2022-12-11T13:20:22;91.57;;;38.67;;
39218;SDS011;24934;52.752;6.964;2022-12-11T13:22:55;95.40;;;38.37;;
39218;SDS011;24934;52.752;6.964;2022-12-11T13:25:44;81.73;;;36.97;;
39218;SDS011;24934;52.752;6.964;2022-12-11T13:28:20;85.63;;;40.27;;
39218;SDS011;24934;52.752;6.964;2022-12-11T13:33:26;85.17;;;38.70;;
39218;SDS011;24934;52.752;6.964;2022-12-11T13:38:35;87.43;;;37.50;;
39218;SDS011;24934;52.752;6.964;2022-12-11T13:41:03;88.63;;;38.20;;
39218;SDS011;24934;52.752;6.964;2022-12-11T13:43:35;91.50;;;38.07;;
39218;SDS011;24934;52.752;6.964;2022-12-11T13:46:03;90.20;;;38.23;;
39218;SDS011;24934;52.752;6.964;2022-12-11T13:48:47;90.83;;;38.30;;
39218;SDS011;24934;52.752;6.964;2022-12-11T13:51:25;84.90;;;37.50;;
39218;SDS011;24934;52.752;6.964;2022-12-11T13:54:11;89.77;;;38.20;;
39218;SDS011;24934;52.752;6.964;2022-12-11T13:56:51;91.37;;;37.73;;
39218;SDS011;24934;52.752;6.964;2022-12-11T13:59:19;92.10;;;38.80;;
39218;SDS011;24934;52.752;6.964;2022-12-11T14:01:53;89.53;;;38.20;;
39218;SDS011;24934;52.752;6.964;2022-12-11T14:04:21;93.37;;;38.60;;
39218;SDS011;24934;52.752;6.964;2022-12-11T14:06:48;99.50;;;40.30;;
39218;SDS011;24934;52.752;6.964;2022-12-11T14:09:21;93.43;;;39.03;;
39218;SDS011;24934;52.752;6.964;2022-12-11T14:11:52;88.83;;;38.93;;
39218;SDS011;24934;52.752;6.964;2022-12-11T14:14:38;81.97;;;38.40;;
39218;SDS011;24934;52.752;6.964;2022-12-11T14:17:09;86.20;;;38.30;;
39218;SDS011;24934;52.752;6.964;2022-12-11T14:19:40;92.17;;;39.23;;
39218;SDS011;24934;52.752;6.964;2022-12-11T14:22:21;95.80;;;39.23;;
39218;SDS011;24934;52.752;6.964;2022-12-11T14:24:53;86.07;;;38.13;;
39218;SDS011;24934;52.752;6.964;2022-12-11T14:27:20;91.77;;;40.77;;
39218;SDS011;24934;52.752;6.964;2022-12-11T14:29:47;93.33;;;39.07;;
39218;SDS011;24934;52.752;6.964;2022-12-11T14:32:18;99.53;;;41.13;;
39218;SDS011;24934;52.752;6.964;2022-12-11T14:35:06;103.90;;;43.20;;
39218;SDS011;24934;52.752;6.964;2022-12-11T14:37:42;100.17;;;42.80;;
39218;SDS011;24934;52.752;6.964;2022-12-11T14:40:09;100.53;;;41.77;;
39218;SDS011;24934;52.752;6.964;2022-12-11T14:42:55;91.57;;;40.60;;
39218;SDS011;24934;52.752;6.964;2022-12-11T14:45:25;87.77;;;39.87;;
39218;SDS011;24934;52.752;6.964;2022-12-11T14:47:58;85.03;;;37.87;;
39218;SDS011;24934;52.752;6.964;2022-12-11T14:53:06;92.60;;;37.53;;
39218;SDS011;24934;52.752;6.964;2022-12-11T14:55:37;85.80;;;36.60;;
39218;SDS011;24934;52.752;6.964;2022-12-11T14:58:14;81.10;;;35.63;;
39218;SDS011;24934;52.752;6.964;2022-12-11T15:00:42;96.33;;;40.67;;
39218;SDS011;24934;52.752;6.964;2022-12-11T15:05:46;87.80;;;37.67;;
39218;SDS011;24934;52.752;6.964;2022-12-11T15:08:18;83.43;;;36.70;;
39218;SDS011;24934;52.752;6.964;2022-12-11T15:13:38;85.53;;;36.00;;
39218;SDS011;24934;52.752;6.964;2022-12-11T15:16:20;87.77;;;37.83;;
39218;SDS011;24934;52.752;6.964;2022-12-11T15:18:48;86.53;;;37.93;;
39218;SDS011;24934;52.752;6.964;2022-12-11T15:21:16;86.33;;;38.07;;
39218;SDS011;24934;52.752;6.964;2022-12-11T15:23:50;87.93;;;36.13;;
39218;SDS011;24934;52.752;6.964;2022-12-11T15:32:00;93.17;;;37.43;;
39218;SDS011;24934;52.752;6.964;2022-12-11T15:34:32;78.50;;;35.50;;
39218;SDS011;24934;52.752;6.964;2022-12-11T15:36:59;95.10;;;38.20;;
39218;SDS011;24934;52.752;6.964;2022-12-11T15:39:25;87.80;;;37.63;;
39218;SDS011;24934;52.752;6.964;2022-12-11T15:41:53;86.13;;;37.00;;
39218;SDS011;24934;52.752;6.964;2022-12-11T15:44:20;86.73;;;37.30;;
39218;SDS011;24934;52.752;6.964;2022-12-11T15:46:49;87.07;;;36.93;;
39218;SDS011;24934;52.752;6.964;2022-12-11T15:49:15;84.77;;;34.67;;
39218;SDS011;24934;52.752;6.964;2022-12-11T15:51:43;76.80;;;35.03;;
39218;SDS011;24934;52.752;6.964;2022-12-11T15:54:08;81.83;;;34.73;;
39218;SDS011;24934;52.752;6.964;2022-12-11T15:56:34;81.27;;;35.97;;
39218;SDS011;24934;52.752;6.964;2022-12-11T15:59:02;91.57;;;38.50;;
39218;SDS011;24934;52.752;6.964;2022-12-11T16:01:30;82.77;;;36.77;;
39218;SDS011;24934;52.752;6.964;2022-12-11T16:03:56;86.63;;;38.20;;
39218;SDS011;24934;52.752;6.964;2022-12-11T16:06:21;76.03;;;36.03;;
39218;SDS011;24934;52.752;6.964;2022-12-11T16:08:47;86.37;;;36.50;;
39218;SDS011;24934;52.752;6.964;2022-12-11T16:11:13;74.97;;;34.67;;
39218;SDS011;24934;52.752;6.964;2022-12-11T16:13:38;74.13;;;34.67;;
39218;SDS011;24934;52.752;6.964;2022-12-11T16:16:04;72.00;;;34.40;;
39218;SDS011;24934;52.752;6.964;2022-12-11T16:18:30;69.10;;;33.83;;
39218;SDS011;24934;52.752;6.964;2022-12-11T16:20:57;72.67;;;34.60;;